sensor_id;sensor_type;location;lat;lon;timestamp;pressure;altitude;pressure_sealevel;temperature;humidity
78679;BME280;67994;59.334;13.528;2023-06-24T00:00:00;101200.0;;;17.2;71.0
78679;BME280;67994;59.334;13.528;2023-06-24T00:01:00;101200.0;;;17.2;70.5
78679;BME280;67994;59.334;13.528;2023-06-24T00:02:00;101200.0;;;17.1;71.6
78679;BME280;67994;59.334;13.528;2023-06-24T00:03:00;101200.0;;;17.1;72.1
78679;BME280;67994;59.334;13.528;2023-06-24T00:04:00;101200.0;;;17.1;72.2
78679;BME280;67994;59.334;13.528;2023-06-24T00:05:00;101200.0;;;17.2;72.4
78679;BME280;67994;59.334;13.528;2023-06-24T00:06:00;101200.0;;;17.3;72.0
78679;BME280;67994;59.334;13.528;2023-06-24T00:07:00;101200.0;;;17.2;72.3
78679;BME280;67994;59.334;13.528;2023-06-24T00:08:00;101200.0;;;17.2;73.7
78679;BME280;67994;59.334;13.528;2023-06-24T00:09:00;101200.0;;;17.3;75.0
78679;BME280;67994;59.334;13.528;2023-06-24T00:10:00;101200.0;;;17.2;75.4
78679;BME280;67994;59.334;13.528;2023-06-24T00:11:01;101200.0;;;17.1;76.3
78679;BME280;67994;59.334;13.528;2023-06-24T00:12:01;101200.0;;;17.0;76.2
78679;BME280;67994;59.334;13.528;2023-06-24T00:13:00;101200.0;;;17.0;76.2
78679;BME280;67994;59.334;13.528;2023-06-24T00:14:00;101200.0;;;17.1;74.5
78679;BME280;67994;59.334;13.528;2023-06-24T00:15:00;101200.0;;;17.2;74.6
78679;BME280;67994;59.334;13.528;2023-06-24T00:16:00;101200.0;;;17.2;74.7
78679;BME280;67994;59.334;13.528;2023-06-24T00:17:00;101200.0;;;17.1;77.8
78679;BME280;67994;59.334;13.528;2023-06-24T00:18:00;101200.0;;;17.1;77.3
78679;BME280;67994;59.334;13.528;2023-06-24T00:19:00;101200.0;;;17.1;77.9
78679;BME280;67994;59.334;13.528;2023-06-24T00:20:00;101200.0;;;17.2;77.4
78679;BME280;67994;59.334;13.528;2023-06-24T00:21:00;101200.0;;;17.2;77.0
78679;BME280;67994;59.334;13.528;2023-06-24T00:22:00;101200.0;;;17.0;78.3
78679;BME280;67994;59.334;13.528;2023-06-24T00:23:00;101200.0;;;17.1;78.4
78679;BME280;67994;59.334;13.528;2023-06-24T00:24:00;101200.0;;;17.1;78.3
78679;BME280;67994;59.334;13.528;2023-06-24T00:25:00;101200.0;;;17.1;78.2
78679;BME280;67994;59.334;13.528;2023-06-24T00:26:00;101200.0;;;17.2;78.4
78679;BME280;67994;59.334;13.528;2023-06-24T00:27:00;101200.0;;;17.2;78.2
78679;BME280;67994;59.334;13.528;2023-06-24T00:28:00;101200.0;;;17.3;76.6
78679;BME280;67994;59.334;13.528;2023-06-24T00:29:00;101200.0;;;17.4;76.8
78679;BME280;67994;59.334;13.528;2023-06-24T00:30:00;101200.0;;;17.5;76.4
78679;BME280;67994;59.334;13.528;2023-06-24T00:31:00;101200.0;;;17.4;76.4
78679;BME280;67994;59.334;13.528;2023-06-24T00:32:00;101200.0;;;17.5;75.5
78679;BME280;67994;59.334;13.528;2023-06-24T00:33:00;101200.0;;;17.4;76.1
78679;BME280;67994;59.334;13.528;2023-06-24T00:34:00;101200.0;;;17.3;76.6
78679;BME280;67994;59.334;13.528;2023-06-24T00:35:00;101200.0;;;17.4;76.6
78679;BME280;67994;59.334;13.528;2023-06-24T00:36:00;101200.0;;;17.3;77.4
78679;BME280;67994;59.334;13.528;2023-06-24T00:37:00;101200.0;;;17.3;77.2
78679;BME280;67994;59.334;13.528;2023-06-24T00:38:00;101200.0;;;17.3;76.9
78679;BME280;67994;59.334;13.528;2023-06-24T00:39:00;101200.0;;;17.3;78.1
78679;BME280;67994;59.334;13.528;2023-06-24T00:40:00;101200.0;;;17.2;77.3
78679;BME280;67994;59.334;13.528;2023-06-24T00:41:00;101200.0;;;17.1;78.1
78679;BME280;67994;59.334;13.528;2023-06-24T00:42:00;101200.0;;;17.2;77.8
78679;BME280;67994;59.334;13.528;2023-06-24T00:43:00;101200.0;;;17.3;77.2
78679;BME280;67994;59.334;13.528;2023-06-24T00:44:00;101200.0;;;17.4;76.6
78679;BME280;67994;59.334;13.528;2023-06-24T00:45:00;101200.0;;;17.3;77.1
78679;BME280;67994;59.334;13.528;2023-06-24T00:46:00;101300.0;;;17.3;78.2
78679;BME280;67994;59.334;13.528;2023-06-24T00:47:00;101300.0;;;17.2;78.3
78679;BME280;67994;59.334;13.528;2023-06-24T00:48:00;101300.0;;;17.2;78.6
78679;BME280;67994;59.334;13.528;2023-06-24T00:49:00;101300.0;;;17.3;78.1
78679;BME280;67994;59.334;13.528;2023-06-24T00:50:00;101300.0;;;17.2;78.5
78679;BME280;67994;59.334;13.528;2023-06-24T00:51:00;101300.0;;;17.2;78.8
78679;BME280;67994;59.334;13.528;2023-06-24T00:52:00;101300.0;;;17.2;79.3
78679;BME280;67994;59.334;13.528;2023-06-24T00:53:00;101300.0;;;17.1;79.1
78679;BME280;67994;59.334;13.528;2023-06-24T00:54:00;101300.0;;;17.1;78.9
78679;BME280;67994;59.334;13.528;2023-06-24T00:55:00;101300.0;;;17.0;79.2
78679;BME280;67994;59.334;13.528;2023-06-24T00:56:00;101300.0;;;17.3;77.8
78679;BME280;67994;59.334;13.528;2023-06-24T00:57:00;101300.0;;;17.1;78.5
78679;BME280;67994;59.334;13.528;2023-06-24T00:58:00;101300.0;;;17.1;78.2
78679;BME280;67994;59.334;13.528;2023-06-24T00:59:01;101300.0;;;17.1;78.0
78679;BME280;67994;59.334;13.528;2023-06-24T01:00:00;101300.0;;;17.1;77.8
78679;BME280;67994;59.334;13.528;2023-06-24T01:01:00;101300.0;;;17.2;77.6
78679;BME280;67994;59.334;13.528;2023-06-24T01:02:00;101300.0;;;17.3;76.6
78679;BME280;67994;59.334;13.528;2023-06-24T01:03:00;101300.0;;;17.1;77.6
78679;BME280;67994;59.334;13.528;2023-06-24T01:04:01;101300.0;;;17.2;77.3
78679;BME280;67994;59.334;13.528;2023-06-24T01:05:00;101300.0;;;17.2;77.3
78679;BME280;67994;59.334;13.528;2023-06-24T01:06:00;101300.0;;;17.2;76.7
78679;BME280;67994;59.334;13.528;2023-06-24T01:07:01;101300.0;;;17.2;76.6
78679;BME280;67994;59.334;13.528;2023-06-24T01:08:01;101300.0;;;17.2;75.4
78679;BME280;67994;59.334;13.528;2023-06-24T01:09:00;101300.0;;;17.5;74.2
78679;BME280;67994;59.334;13.528;2023-06-24T01:10:00;101300.0;;;17.3;75.6
78679;BME280;67994;59.334;13.528;2023-06-24T01:11:00;101300.0;;;17.2;75.3
78679;BME280;67994;59.334;13.528;2023-06-24T01:12:00;101300.0;;;17.3;73.4
78679;BME280;67994;59.334;13.528;2023-06-24T01:13:00;101300.0;;;17.2;73.2
78679;BME280;67994;59.334;13.528;2023-06-24T01:14:00;101300.0;;;17.3;72.3
78679;BME280;67994;59.334;13.528;2023-06-24T01:15:01;101300.0;;;17.4;71.2
78679;BME280;67994;59.334;13.528;2023-06-24T01:16:06;101300.0;;;17.3;70.7
78679;BME280;67994;59.334;13.528;2023-06-24T01:17:05;101300.0;;;17.4;70.2
78679;BME280;67994;59.334;13.528;2023-06-24T01:18:04;101300.0;;;17.2;68.7
78679;BME280;67994;59.334;13.528;2023-06-24T01:19:06;101300.0;;;17.3;68.7
78679;BME280;67994;59.334;13.528;2023-06-24T01:20:04;101300.0;;;17.3;68.0
78679;BME280;67994;59.334;13.528;2023-06-24T01:21:04;101300.0;;;17.3;68.2
78679;BME280;67994;59.334;13.528;2023-06-24T01:22:06;101300.0;;;17.2;68.5
78679;BME280;67994;59.334;13.528;2023-06-24T01:23:16;101300.0;;;17.3;67.4
78679;BME280;67994;59.334;13.528;2023-06-24T01:24:11;101300.0;;;17.5;66.8
78679;BME280;67994;59.334;13.528;2023-06-24T01:25:07;101300.0;;;17.3;67.2
78679;BME280;67994;59.334;13.528;2023-06-24T01:27:15;101300.0;;;17.3;66.5
78679;BME280;67994;59.334;13.528;2023-06-24T01:28:16;101300.0;;;17.4;66.3
78679;BME280;67994;59.334;13.528;2023-06-24T01:29:18;101300.0;;;17.3;66.4
78679;BME280;67994;59.334;13.528;2023-06-24T01:30:13;101300.0;;;17.3;67.2
78679;BME280;67994;59.334;13.528;2023-06-24T01:31:19;101300.0;;;17.2;67.8
78679;BME280;67994;59.334;13.528;2023-06-24T01:32:05;101300.0;;;17.2;68.0
78679;BME280;67994;59.334;13.528;2023-06-24T01:33:03;101300.0;;;17.1;68.4
78679;BME280;67994;59.334;13.528;2023-06-24T01:34:03;101300.0;;;17.1;68.3
78679;BME280;67994;59.334;13.528;2023-06-24T01:35:02;101300.0;;;17.2;67.9
78679;BME280;67994;59.334;13.528;2023-06-24T01:36:01;101300.0;;;17.2;68.0
78679;BME280;67994;59.334;13.528;2023-06-24T01:37:05;101300.0;;;17.1;68.3
78679;BME280;67994;59.334;13.528;2023-06-24T01:38:05;101300.0;;;17.2;67.4
78679;BME280;67994;59.334;13.528;2023-06-24T01:39:02;101300.0;;;17.2;67.7
78679;BME280;67994;59.334;13.528;2023-06-24T01:40:05;101300.0;;;17.1;69.2
78679;BME280;67994;59.334;13.528;2023-06-24T01:41:02;101300.0;;;16.9;69.6
78679;BME280;67994;59.334;13.528;2023-06-24T01:42:10;101300.0;;;17.0;69.2
78679;BME280;67994;59.334;13.528;2023-06-24T01:43:01;101300.0;;;17.1;69.3
78679;BME280;67994;59.334;13.528;2023-06-24T01:44:01;101300.0;;;16.9;70.1
78679;BME280;67994;59.334;13.528;2023-06-24T01:45:00;101300.0;;;17.1;69.0
78679;BME280;67994;59.334;13.528;2023-06-24T01:46:01;101300.0;;;17.0;69.2
78679;BME280;67994;59.334;13.528;2023-06-24T01:47:00;101300.0;;;17.0;69.1
78679;BME280;67994;59.334;13.528;2023-06-24T01:48:06;101300.0;;;16.9;69.3
78679;BME280;67994;59.334;13.528;2023-06-24T01:49:02;101300.0;;;17.0;68.7
78679;BME280;67994;59.334;13.528;2023-06-24T01:50:02;101300.0;;;16.9;68.0
78679;BME280;67994;59.334;13.528;2023-06-24T01:51:03;101300.0;;;17.0;68.2
78679;BME280;67994;59.334;13.528;2023-06-24T01:52:01;101300.0;;;16.9;68.7
78679;BME280;67994;59.334;13.528;2023-06-24T01:53:01;101300.0;;;17.1;66.9
78679;BME280;67994;59.334;13.528;2023-06-24T01:54:02;101300.0;;;17.1;67.6
78679;BME280;67994;59.334;13.528;2023-06-24T01:55:01;101300.0;;;17.1;67.4
78679;BME280;67994;59.334;13.528;2023-06-24T01:56:01;101300.0;;;17.0;67.6
78679;BME280;67994;59.334;13.528;2023-06-24T01:57:02;101300.0;;;17.0;67.2
78679;BME280;67994;59.334;13.528;2023-06-24T01:58:02;101300.0;;;17.0;66.8
78679;BME280;67994;59.334;13.528;2023-06-24T01:59:01;101300.0;;;17.0;66.4
78679;BME280;67994;59.334;13.528;2023-06-24T02:00:00;101300.0;;;17.0;65.9
78679;BME280;67994;59.334;13.528;2023-06-24T02:01:01;101300.0;;;16.9;66.0
78679;BME280;67994;59.334;13.528;2023-06-24T02:02:01;101300.0;;;16.8;65.9
78679;BME280;67994;59.334;13.528;2023-06-24T02:03:00;101300.0;;;16.9;65.7
78679;BME280;67994;59.334;13.528;2023-06-24T02:04:01;101300.0;;;16.9;65.5
78679;BME280;67994;59.334;13.528;2023-06-24T02:05:00;101300.0;;;16.9;64.7
78679;BME280;67994;59.334;13.528;2023-06-24T02:06:01;101300.0;;;17.0;64.7
78679;BME280;67994;59.334;13.528;2023-06-24T02:07:02;101300.0;;;17.2;64.0
78679;BME280;67994;59.334;13.528;2023-06-24T02:08:00;101300.0;;;17.0;64.3
78679;BME280;67994;59.334;13.528;2023-06-24T02:09:01;101300.0;;;17.0;64.3
78679;BME280;67994;59.334;13.528;2023-06-24T02:10:00;101300.0;;;16.8;64.1
78679;BME280;67994;59.334;13.528;2023-06-24T02:11:01;101300.0;;;16.8;64.2
78679;BME280;67994;59.334;13.528;2023-06-24T02:12:01;101300.0;;;16.8;63.8
78679;BME280;67994;59.334;13.528;2023-06-24T02:13:00;101300.0;;;16.7;64.3
78679;BME280;67994;59.334;13.528;2023-06-24T02:14:01;101300.0;;;16.7;64.5
78679;BME280;67994;59.334;13.528;2023-06-24T02:15:01;101300.0;;;16.8;63.7
78679;BME280;67994;59.334;13.528;2023-06-24T02:16:01;101300.0;;;16.8;63.8
78679;BME280;67994;59.334;13.528;2023-06-24T02:17:02;101300.0;;;16.8;63.7
78679;BME280;67994;59.334;13.528;2023-06-24T02:18:01;101300.0;;;17.0;63.0
78679;BME280;67994;59.334;13.528;2023-06-24T02:19:00;101300.0;;;17.1;63.1
78679;BME280;67994;59.334;13.528;2023-06-24T02:20:01;101300.0;;;16.9;63.3
78679;BME280;67994;59.334;13.528;2023-06-24T02:21:01;101300.0;;;17.1;62.6
78679;BME280;67994;59.334;13.528;2023-06-24T02:22:01;101300.0;;;17.2;62.5
78679;BME280;67994;59.334;13.528;2023-06-24T02:23:00;101300.0;;;17.6;62.4
78679;BME280;67994;59.334;13.528;2023-06-24T02:24:01;101300.0;;;17.6;62.0
78679;BME280;67994;59.334;13.528;2023-06-24T02:25:00;101300.0;;;17.4;62.4
78679;BME280;67994;59.334;13.528;2023-06-24T02:26:01;101300.0;;;17.5;61.8
78679;BME280;67994;59.334;13.528;2023-06-24T02:27:00;101300.0;;;17.4;61.5
78679;BME280;67994;59.334;13.528;2023-06-24T02:28:00;101300.0;;;17.7;61.1
78679;BME280;67994;59.334;13.528;2023-06-24T02:29:00;101300.0;;;17.4;61.1
78679;BME280;67994;59.334;13.528;2023-06-24T02:30:00;101300.0;;;17.4;60.4
78679;BME280;67994;59.334;13.528;2023-06-24T02:31:00;101300.0;;;17.4;61.4
78679;BME280;67994;59.334;13.528;2023-06-24T02:32:00;101300.0;;;17.4;61.0
78679;BME280;67994;59.334;13.528;2023-06-24T02:33:00;101300.0;;;17.5;60.2
78679;BME280;67994;59.334;13.528;2023-06-24T02:34:00;101300.0;;;17.9;60.2
78679;BME280;67994;59.334;13.528;2023-06-24T02:35:00;101300.0;;;18.0;59.8
78679;BME280;67994;59.334;13.528;2023-06-24T02:36:00;101300.0;;;18.1;59.8
78679;BME280;67994;59.334;13.528;2023-06-24T02:37:00;101300.0;;;18.0;60.0
78679;BME280;67994;59.334;13.528;2023-06-24T02:38:00;101300.0;;;17.9;60.4
78679;BME280;67994;59.334;13.528;2023-06-24T02:39:00;101300.0;;;18.0;59.9
78679;BME280;67994;59.334;13.528;2023-06-24T02:40:01;101300.0;;;18.0;59.9
78679;BME280;67994;59.334;13.528;2023-06-24T02:41:00;101300.0;;;17.7;60.6
78679;BME280;67994;59.334;13.528;2023-06-24T02:42:00;101300.0;;;17.8;60.2
78679;BME280;67994;59.334;13.528;2023-06-24T02:43:00;101300.0;;;17.8;60.1
78679;BME280;67994;59.334;13.528;2023-06-24T02:44:00;101300.0;;;18.4;58.7
78679;BME280;67994;59.334;13.528;2023-06-24T02:45:01;101300.0;;;18.6;57.3
78679;BME280;67994;59.334;13.528;2023-06-24T02:46:01;101300.0;;;19.2;57.0
78679;BME280;67994;59.334;13.528;2023-06-24T02:47:00;101300.0;;;19.6;57.4
78679;BME280;67994;59.334;13.528;2023-06-24T02:48:00;101300.0;;;18.7;56.9
78679;BME280;67994;59.334;13.528;2023-06-24T02:49:01;101300.0;;;18.3;58.1
78679;BME280;67994;59.334;13.528;2023-06-24T02:50:00;101300.0;;;18.9;56.8
78679;BME280;67994;59.334;13.528;2023-06-24T02:51:00;101300.0;;;19.3;55.9
78679;BME280;67994;59.334;13.528;2023-06-24T02:52:00;101300.0;;;19.4;55.7
78679;BME280;67994;59.334;13.528;2023-06-24T02:53:01;101300.0;;;19.4;55.5
78679;BME280;67994;59.334;13.528;2023-06-24T02:54:01;101300.0;;;19.2;55.9
78679;BME280;67994;59.334;13.528;2023-06-24T02:55:00;101300.0;;;19.4;55.1
78679;BME280;67994;59.334;13.528;2023-06-24T02:56:00;101300.0;;;19.3;55.5
78679;BME280;67994;59.334;13.528;2023-06-24T02:57:00;101300.0;;;18.7;56.9
78679;BME280;67994;59.334;13.528;2023-06-24T02:58:01;101300.0;;;19.3;55.5
78679;BME280;67994;59.334;13.528;2023-06-24T02:59:00;101300.0;;;19.4;55.3
78679;BME280;67994;59.334;13.528;2023-06-24T03:00:00;101300.0;;;19.6;54.5
78679;BME280;67994;59.334;13.528;2023-06-24T03:01:01;101300.0;;;19.6;54.6
78679;BME280;67994;59.334;13.528;2023-06-24T03:02:00;101300.0;;;19.5;55.9
78679;BME280;67994;59.334;13.528;2023-06-24T03:03:00;101300.0;;;18.8;56.1
78679;BME280;67994;59.334;13.528;2023-06-24T03:04:00;101300.0;;;19.4;55.3
78679;BME280;67994;59.334;13.528;2023-06-24T03:05:00;101300.0;;;19.8;54.6
78679;BME280;67994;59.334;13.528;2023-06-24T03:06:01;101300.0;;;19.3;55.3
78679;BME280;67994;59.334;13.528;2023-06-24T03:07:00;101300.0;;;19.5;55.0
78679;BME280;67994;59.334;13.528;2023-06-24T03:08:00;101300.0;;;20.1;54.6
78679;BME280;67994;59.334;13.528;2023-06-24T03:09:00;101300.0;;;20.2;53.9
78679;BME280;67994;59.334;13.528;2023-06-24T03:10:00;101300.0;;;19.2;56.1
78679;BME280;67994;59.334;13.528;2023-06-24T03:11:00;101300.0;;;19.1;56.3
78679;BME280;67994;59.334;13.528;2023-06-24T03:12:00;101300.0;;;19.2;55.9
78679;BME280;67994;59.334;13.528;2023-06-24T03:13:00;101300.0;;;19.4;55.4
78679;BME280;67994;59.334;13.528;2023-06-24T03:14:00;101400.0;;;18.8;56.8
78679;BME280;67994;59.334;13.528;2023-06-24T03:15:01;101400.0;;;19.2;55.9
78679;BME280;67994;59.334;13.528;2023-06-24T03:16:00;101400.0;;;19.5;55.1
78679;BME280;67994;59.334;13.528;2023-06-24T03:17:00;101400.0;;;19.2;56.0
78679;BME280;67994;59.334;13.528;2023-06-24T03:18:00;101400.0;;;19.6;55.1
78679;BME280;67994;59.334;13.528;2023-06-24T03:19:00;101400.0;;;20.0;54.7
78679;BME280;67994;59.334;13.528;2023-06-24T03:20:00;101400.0;;;20.0;54.1
78679;BME280;67994;59.334;13.528;2023-06-24T03:21:00;101400.0;;;20.2;53.7
78679;BME280;67994;59.334;13.528;2023-06-24T03:22:00;101400.0;;;19.4;55.2
78679;BME280;67994;59.334;13.528;2023-06-24T03:23:00;101400.0;;;19.0;56.0
78679;BME280;67994;59.334;13.528;2023-06-24T03:24:00;101400.0;;;18.9;56.3
78679;BME280;67994;59.334;13.528;2023-06-24T03:25:00;101400.0;;;18.8;56.5
78679;BME280;67994;59.334;13.528;2023-06-24T03:26:00;101400.0;;;19.1;56.1
78679;BME280;67994;59.334;13.528;2023-06-24T03:27:00;101400.0;;;19.2;54.8
78679;BME280;67994;59.334;13.528;2023-06-24T03:28:00;101400.0;;;18.9;56.3
78679;BME280;67994;59.334;13.528;2023-06-24T03:29:00;101400.0;;;19.1;55.7
78679;BME280;67994;59.334;13.528;2023-06-24T03:30:00;101400.0;;;19.1;55.4
78679;BME280;67994;59.334;13.528;2023-06-24T03:31:01;101400.0;;;19.2;55.2
78679;BME280;67994;59.334;13.528;2023-06-24T03:32:00;101400.0;;;19.0;55.0
78679;BME280;67994;59.334;13.528;2023-06-24T03:33:00;101400.0;;;19.0;54.7
78679;BME280;67994;59.334;13.528;2023-06-24T03:34:00;101400.0;;;18.9;55.2
78679;BME280;67994;59.334;13.528;2023-06-24T03:35:00;101400.0;;;18.6;55.4
78679;BME280;67994;59.334;13.528;2023-06-24T03:36:00;101400.0;;;18.5;55.6
78679;BME280;67994;59.334;13.528;2023-06-24T03:37:00;101400.0;;;18.9;54.9
78679;BME280;67994;59.334;13.528;2023-06-24T03:38:00;101400.0;;;18.4;55.7
78679;BME280;67994;59.334;13.528;2023-06-24T03:39:00;101400.0;;;18.2;55.7
78679;BME280;67994;59.334;13.528;2023-06-24T03:40:00;101400.0;;;18.5;55.4
78679;BME280;67994;59.334;13.528;2023-06-24T03:41:00;101400.0;;;18.4;55.5
78679;BME280;67994;59.334;13.528;2023-06-24T03:42:00;101400.0;;;18.5;55.0
78679;BME280;67994;59.334;13.528;2023-06-24T03:43:00;101400.0;;;18.7;54.3
78679;BME280;67994;59.334;13.528;2023-06-24T03:44:00;101400.0;;;18.9;54.1
78679;BME280;67994;59.334;13.528;2023-06-24T03:45:01;101400.0;;;19.0;53.9
78679;BME280;67994;59.334;13.528;2023-06-24T03:46:00;101400.0;;;19.0;53.4
78679;BME280;67994;59.334;13.528;2023-06-24T03:47:00;101400.0;;;18.3;54.6
78679;BME280;67994;59.334;13.528;2023-06-24T03:48:00;101400.0;;;18.2;55.1
78679;BME280;67994;59.334;13.528;2023-06-24T03:49:00;101400.0;;;18.5;54.6
78679;BME280;67994;59.334;13.528;2023-06-24T03:50:00;101400.0;;;18.8;54.1
78679;BME280;67994;59.334;13.528;2023-06-24T03:51:00;101400.0;;;18.4;55.4
78679;BME280;67994;59.334;13.528;2023-06-24T03:52:00;101400.0;;;18.3;55.1
78679;BME280;67994;59.334;13.528;2023-06-24T03:53:01;101400.0;;;18.5;54.3
78679;BME280;67994;59.334;13.528;2023-06-24T03:54:00;101400.0;;;18.8;54.4
78679;BME280;67994;59.334;13.528;2023-06-24T03:55:00;101400.0;;;18.8;54.5
78679;BME280;67994;59.334;13.528;2023-06-24T03:56:00;101400.0;;;18.9;53.6
78679;BME280;67994;59.334;13.528;2023-06-24T03:57:00;101400.0;;;18.9;54.0
78679;BME280;67994;59.334;13.528;2023-06-24T03:58:00;101400.0;;;19.0;53.2
78679;BME280;67994;59.334;13.528;2023-06-24T03:59:00;101400.0;;;19.4;53.0
78679;BME280;67994;59.334;13.528;2023-06-24T04:00:00;101400.0;;;19.2;53.1
78679;BME280;67994;59.334;13.528;2023-06-24T04:01:02;101400.0;;;19.5;52.5
78679;BME280;67994;59.334;13.528;2023-06-24T04:02:00;101400.0;;;19.3;52.9
78679;BME280;67994;59.334;13.528;2023-06-24T04:03:00;101400.0;;;19.4;52.7
78679;BME280;67994;59.334;13.528;2023-06-24T04:04:00;101400.0;;;20.0;52.0
78679;BME280;67994;59.334;13.528;2023-06-24T04:05:00;101400.0;;;19.5;52.8
78679;BME280;67994;59.334;13.528;2023-06-24T04:06:00;101400.0;;;20.2;51.2
78679;BME280;67994;59.334;13.528;2023-06-24T04:07:00;101400.0;;;19.8;51.5
78679;BME280;67994;59.334;13.528;2023-06-24T04:08:00;101400.0;;;20.0;50.8
78679;BME280;67994;59.334;13.528;2023-06-24T04:09:00;101400.0;;;20.3;50.9
78679;BME280;67994;59.334;13.528;2023-06-24T04:10:00;101400.0;;;20.7;50.0
78679;BME280;67994;59.334;13.528;2023-06-24T04:11:00;101400.0;;;21.0;49.3
78679;BME280;67994;59.334;13.528;2023-06-24T04:12:00;101400.0;;;21.2;49.1
78679;BME280;67994;59.334;13.528;2023-06-24T04:13:00;101400.0;;;21.1;49.2
78679;BME280;67994;59.334;13.528;2023-06-24T04:14:00;101400.0;;;20.3;50.0
78679;BME280;67994;59.334;13.528;2023-06-24T04:15:00;101400.0;;;20.5;49.8
78679;BME280;67994;59.334;13.528;2023-06-24T04:16:00;101400.0;;;20.7;49.4
78679;BME280;67994;59.334;13.528;2023-06-24T04:17:00;101400.0;;;20.3;49.3
78679;BME280;67994;59.334;13.528;2023-06-24T04:18:00;101400.0;;;20.5;48.8
78679;BME280;67994;59.334;13.528;2023-06-24T04:19:00;101400.0;;;20.6;48.8
78679;BME280;67994;59.334;13.528;2023-06-24T04:20:02;101400.0;;;20.3;49.3
78679;BME280;67994;59.334;13.528;2023-06-24T04:21:00;101400.0;;;19.8;50.1
78679;BME280;67994;59.334;13.528;2023-06-24T04:22:00;101400.0;;;19.8;50.0
78679;BME280;67994;59.334;13.528;2023-06-24T04:23:00;101400.0;;;19.5;50.4
78679;BME280;67994;59.334;13.528;2023-06-24T04:24:00;101400.0;;;19.7;50.1
78679;BME280;67994;59.334;13.528;2023-06-24T04:25:00;101400.0;;;19.5;50.4
78679;BME280;67994;59.334;13.528;2023-06-24T04:26:00;101400.0;;;19.3;51.0
78679;BME280;67994;59.334;13.528;2023-06-24T04:27:00;101400.0;;;19.3;51.1
78679;BME280;67994;59.334;13.528;2023-06-24T04:28:00;101400.0;;;19.3;51.5
78679;BME280;67994;59.334;13.528;2023-06-24T04:29:00;101400.0;;;19.2;51.3
78679;BME280;67994;59.334;13.528;2023-06-24T04:30:00;101400.0;;;18.6;52.4
78679;BME280;67994;59.334;13.528;2023-06-24T04:31:00;101400.0;;;18.8;51.9
78679;BME280;67994;59.334;13.528;2023-06-24T04:32:00;101400.0;;;18.9;51.7
78679;BME280;67994;59.334;13.528;2023-06-24T04:33:00;101400.0;;;18.8;51.9
78679;BME280;67994;59.334;13.528;2023-06-24T04:34:00;101400.0;;;18.8;51.8
78679;BME280;67994;59.334;13.528;2023-06-24T04:35:00;101400.0;;;18.7;52.1
78679;BME280;67994;59.334;13.528;2023-06-24T04:36:00;101400.0;;;18.6;51.7
78679;BME280;67994;59.334;13.528;2023-06-24T04:37:00;101400.0;;;18.7;52.0
78679;BME280;67994;59.334;13.528;2023-06-24T04:38:00;101400.0;;;18.5;51.9
78679;BME280;67994;59.334;13.528;2023-06-24T04:39:00;101400.0;;;18.6;51.8
78679;BME280;67994;59.334;13.528;2023-06-24T04:40:00;101400.0;;;18.7;51.4
78679;BME280;67994;59.334;13.528;2023-06-24T04:41:00;101400.0;;;18.6;51.6
78679;BME280;67994;59.334;13.528;2023-06-24T04:42:00;101400.0;;;18.4;52.4
78679;BME280;67994;59.334;13.528;2023-06-24T04:43:00;101400.0;;;18.8;51.3
78679;BME280;67994;59.334;13.528;2023-06-24T04:44:00;101400.0;;;18.9;51.3
78679;BME280;67994;59.334;13.528;2023-06-24T04:45:00;101400.0;;;18.6;51.4
78679;BME280;67994;59.334;13.528;2023-06-24T04:46:00;101400.0;;;18.4;52.5
78679;BME280;67994;59.334;13.528;2023-06-24T04:47:00;101400.0;;;18.7;51.5
78679;BME280;67994;59.334;13.528;2023-06-24T04:48:00;101400.0;;;18.6;51.7
78679;BME280;67994;59.334;13.528;2023-06-24T04:49:00;101400.0;;;18.8;51.4
78679;BME280;67994;59.334;13.528;2023-06-24T04:50:00;101400.0;;;18.7;51.6
78679;BME280;67994;59.334;13.528;2023-06-24T04:51:00;101400.0;;;18.9;51.2
78679;BME280;67994;59.334;13.528;2023-06-24T04:52:00;101400.0;;;19.0;51.3
78679;BME280;67994;59.334;13.528;2023-06-24T04:53:00;101400.0;;;19.0;51.0
78679;BME280;67994;59.334;13.528;2023-06-24T04:54:00;101400.0;;;19.1;50.8
78679;BME280;67994;59.334;13.528;2023-06-24T04:55:00;101400.0;;;19.2;51.2
78679;BME280;67994;59.334;13.528;2023-06-24T04:56:00;101400.0;;;19.2;51.4
78679;BME280;67994;59.334;13.528;2023-06-24T04:57:00;101400.0;;;19.4;51.0
78679;BME280;67994;59.334;13.528;2023-06-24T04:58:00;101400.0;;;19.5;51.1
78679;BME280;67994;59.334;13.528;2023-06-24T04:59:00;101400.0;;;19.4;51.2
78679;BME280;67994;59.334;13.528;2023-06-24T05:00:00;101400.0;;;19.7;51.2
78679;BME280;67994;59.334;13.528;2023-06-24T05:01:00;101400.0;;;19.9;50.6
78679;BME280;67994;59.334;13.528;2023-06-24T05:02:00;101400.0;;;19.7;50.5
78679;BME280;67994;59.334;13.528;2023-06-24T05:03:00;101400.0;;;19.4;51.6
78679;BME280;67994;59.334;13.528;2023-06-24T05:04:00;101400.0;;;19.3;51.5
78679;BME280;67994;59.334;13.528;2023-06-24T05:05:00;101400.0;;;19.6;51.3
78679;BME280;67994;59.334;13.528;2023-06-24T05:06:00;101400.0;;;19.7;51.1
78679;BME280;67994;59.334;13.528;2023-06-24T05:07:00;101400.0;;;20.0;50.7
78679;BME280;67994;59.334;13.528;2023-06-24T05:08:00;101400.0;;;19.9;51.1
78679;BME280;67994;59.334;13.528;2023-06-24T05:09:00;101400.0;;;20.0;50.6
78679;BME280;67994;59.334;13.528;2023-06-24T05:10:00;101400.0;;;19.7;51.6
78679;BME280;67994;59.334;13.528;2023-06-24T05:11:00;101400.0;;;19.6;51.4
78679;BME280;67994;59.334;13.528;2023-06-24T05:12:00;101400.0;;;19.7;52.0
78679;BME280;67994;59.334;13.528;2023-06-24T05:13:00;101400.0;;;19.9;51.4
78679;BME280;67994;59.334;13.528;2023-06-24T05:14:00;101400.0;;;20.0;51.6
78679;BME280;67994;59.334;13.528;2023-06-24T05:15:00;101400.0;;;20.0;51.7
78679;BME280;67994;59.334;13.528;2023-06-24T05:16:00;101400.0;;;19.8;53.0
78679;BME280;67994;59.334;13.528;2023-06-24T05:17:00;101400.0;;;19.8;53.3
78679;BME280;67994;59.334;13.528;2023-06-24T05:18:00;101400.0;;;20.2;52.6
78679;BME280;67994;59.334;13.528;2023-06-24T05:19:00;101400.0;;;20.2;52.2
78679;BME280;67994;59.334;13.528;2023-06-24T05:20:00;101400.0;;;20.3;52.8
78679;BME280;67994;59.334;13.528;2023-06-24T05:21:00;101400.0;;;19.8;53.6
78679;BME280;67994;59.334;13.528;2023-06-24T05:22:01;101400.0;;;20.5;52.3